Time;durP1;ratioP1;P1;durP2;ratioP2;P2;SDS_P1;SDS_P2;PMS_P1;PMS_P2;Temp;Humidity;BMP_temperature;BMP_pressure;BME280_temperature;BME280_humidity;BME280_pressure;Samples;Min_cycle;Max_cycle;Signal;HPM_P1;HPM_P2
2023/10/04 00:00:15;;;;;;;3.90;2.70;;;11.80;99.90;;;;;;4992181;28;20505;-69
2023/10/04 00:02:43;;;;;;;3.10;2.57;;;11.80;99.90;;;;;;4995090;28;20425;-69
2023/10/04 00:05:08;;;;;;;3.10;2.70;;;11.90;99.90;;;;;;4991118;28;20536;-69
2023/10/04 00:07:34;;;;;;;4.37;3.20;;;11.90;99.90;;;;;;4998974;28;20960;-69
2023/10/04 00:10:04;;;;;;;6.00;3.83;;;11.90;99.90;;;;;;4991650;28;20672;-69
2023/10/04 00:12:30;;;;;;;5.80;2.40;;;11.90;99.90;;;;;;5001158;28;20178;-69
2023/10/04 00:14:56;;;;;;;4.83;3.40;;;11.80;99.90;;;;;;5000250;28;20481;-69
2023/10/04 00:17:22;;;;;;;6.40;2.50;;;11.80;99.90;;;;;;5003314;28;20523;-69
2023/10/04 00:19:47;;;;;;;2.90;2.53;;;11.80;99.90;;;;;;5003417;28;20439;-69
2023/10/04 00:22:13;;;;;;;2.60;2.40;;;11.70;99.90;;;;;;4993103;28;20437;-69
2023/10/04 00:24:39;;;;;;;3.97;3.20;;;11.70;99.90;;;;;;4990962;28;20204;-69
2023/10/04 00:27:05;;;;;;;4.70;2.40;;;11.70;99.90;;;;;;4995226;28;20442;-69
2023/10/04 00:29:30;;;;;;;6.20;3.23;;;11.70;99.90;;;;;;4992370;28;20267;-69
2023/10/04 00:31:56;;;;;;;3.70;2.40;;;11.70;99.90;;;;;;4993580;28;20632;-69
2023/10/04 00:34:22;;;;;;;3.73;2.40;;;11.70;99.90;;;;;;4993111;28;20202;-69
2023/10/04 00:36:48;;;;;;;3.57;2.67;;;11.60;99.90;;;;;;4994547;28;20438;-69
2023/10/04 00:39:14;;;;;;;3.13;2.33;;;11.60;99.90;;;;;;4993106;28;20186;-69
2023/10/04 00:41:40;;;;;;;3.80;2.17;;;11.50;99.90;;;;;;4985975;28;20229;-69
2023/10/04 00:44:07;;;;;;;4.60;3.37;;;11.50;99.90;;;;;;4991673;28;20233;-69
2023/10/04 00:46:35;;;;;;;4.00;2.93;;;11.40;99.90;;;;;;4993085;28;20482;-69
2023/10/04 00:49:03;;;;;;;3.47;3.13;;;11.50;99.90;;;;;;4997096;28;20434;-69
2023/10/04 00:51:35;;;;;;;2.90;2.20;;;11.50;99.90;;;;;;5002805;28;20472;-69
2023/10/04 00:54:03;;;;;;;3.70;2.97;;;11.50;99.90;;;;;;4994822;28;20450;-69
2023/10/04 00:56:29;;;;;;;3.80;2.60;;;11.50;99.90;;;;;;4997675;28;20560;-69
2023/10/04 00:58:58;;;;;;;5.63;2.70;;;11.40;99.90;;;;;;4994730;28;20486;-69
2023/10/04 01:01:23;;;;;;;2.97;2.77;;;11.40;99.90;;;;;;4991551;28;20176;-69
2023/10/04 01:03:50;;;;;;;4.63;2.97;;;11.40;99.90;;;;;;4990121;28;20812;-69
2023/10/04 01:06:16;;;;;;;4.77;3.07;;;11.40;99.90;;;;;;4991428;28;20195;-69
2023/10/04 01:08:42;;;;;;;2.67;2.40;;;11.30;99.90;;;;;;4993353;28;20860;-69
2023/10/04 01:11:08;;;;;;;3.20;2.70;;;11.30;99.90;;;;;;4993340;28;20195;-69
2023/10/04 01:13:33;;;;;;;4.03;2.40;;;11.30;99.90;;;;;;4994261;28;20500;-69
2023/10/04 01:15:59;;;;;;;4.30;2.30;;;11.20;99.90;;;;;;5000104;28;20210;-69
2023/10/04 01:18:28;;;;;;;2.60;2.40;;;11.20;99.90;;;;;;5004012;28;20739;-69
2023/10/04 01:20:55;;;;;;;3.43;3.13;;;11.10;99.90;;;;;;4992742;28;20172;-69
2023/10/04 01:23:20;;;;;;;7.83;2.10;;;11.10;99.90;;;;;;4992220;28;20470;-69
2023/10/04 01:25:47;;;;;;;4.47;2.70;;;11.10;99.90;;;;;;4990156;28;20490;-69
2023/10/04 01:28:26;;;;;;;2.87;2.30;;;11.10;99.90;;;;;;4993865;28;20238;-69
2023/10/04 01:30:54;;;;;;;2.97;2.67;;;11.10;99.90;;;;;;4988195;28;20434;-69
2023/10/04 01:33:20;;;;;;;3.03;2.73;;;11.10;99.90;;;;;;4990901;28;20439;-69
2023/10/04 01:35:52;;;;;;;3.70;2.90;;;11.10;99.90;;;;;;4989003;28;20493;-69
2023/10/04 01:38:17;;;;;;;3.50;2.90;;;11.10;99.90;;;;;;4991450;28;20466;-69
2023/10/04 01:40:47;;;;;;;5.30;2.63;;;11.10;99.90;;;;;;4992668;28;20462;-69
2023/10/04 01:43:16;;;;;;;4.30;2.90;;;11.10;99.90;;;;;;4990920;28;20676;-69
2023/10/04 01:45:57;;;;;;;4.80;2.50;;;11.00;99.90;;;;;;4984000;28;20508;-69
2023/10/04 01:48:23;;;;;;;4.80;3.37;;;11.00;99.90;;;;;;4991244;28;20445;-69
2023/10/04 01:50:52;;;;;;;3.27;2.23;;;10.90;99.90;;;;;;4994949;28;20816;-69
2023/10/04 01:53:21;;;;;;;3.90;2.80;;;10.90;99.90;;;;;;4995025;28;20434;-69
2023/10/04 01:55:46;;;;;;;5.30;3.27;;;10.90;99.90;;;;;;4997563;28;20480;-69
2023/10/04 01:58:14;;;;;;;3.17;2.67;;;10.90;99.90;;;;;;5004968;28;20489;-69
2023/10/04 02:00:40;;;;;;;4.23;2.63;;;10.90;99.90;;;;;;5013341;28;20174;-69
2023/10/04 02:03:07;;;;;;;4.13;2.53;;;10.90;99.90;;;;;;5000889;28;20936;-69
2023/10/04 02:05:37;;;;;;;3.60;2.30;;;10.90;99.90;;;;;;4993278;28;20203;-68
2023/10/04 02:08:05;;;;;;;7.90;3.00;;;10.90;99.90;;;;;;4997073;28;20462;-68
2023/10/04 02:10:31;;;;;;;7.60;2.87;;;10.90;99.90;;;;;;4993446;28;20426;-68
2023/10/04 02:12:59;;;;;;;5.00;2.90;;;10.90;99.90;;;;;;4998560;28;20434;-68
2023/10/04 02:15:25;;;;;;;4.17;2.30;;;10.90;99.90;;;;;;4996657;28;20219;-68
2023/10/04 02:17:51;;;;;;;3.30;2.70;;;10.80;99.90;;;;;;4998611;28;20469;-68
2023/10/04 02:20:23;;;;;;;4.47;2.23;;;10.70;99.90;;;;;;4993197;28;20226;-68
2023/10/04 02:22:49;;;;;;;2.50;2.30;;;10.70;99.90;;;;;;4993403;28;20629;-69
2023/10/04 02:25:15;;;;;;;3.10;2.50;;;10.70;99.90;;;;;;4992512;28;20458;-68
2023/10/04 02:27:43;;;;;;;3.70;2.83;;;10.70;99.90;;;;;;4990258;28;20829;-68
2023/10/04 02:30:18;;;;;;;3.77;2.40;;;10.70;99.90;;;;;;4994089;28;20262;-68
2023/10/04 02:32:44;;;;;;;3.40;3.00;;;10.70;99.90;;;;;;4997826;28;20641;-68
2023/10/04 02:35:21;;;;;;;4.23;2.73;;;10.80;99.90;;;;;;4997880;28;20458;-68
2023/10/04 02:37:47;;;;;;;3.83;2.60;;;10.90;99.90;;;;;;4988218;28;20231;-68
2023/10/04 02:40:16;;;;;;;2.10;1.90;;;10.90;99.90;;;;;;4994579;28;20439;-68
2023/10/04 02:42:44;;;;;;;4.47;2.30;;;11.00;99.90;;;;;;4992031;28;20437;-68
2023/10/04 02:45:18;;;;;;;3.60;2.90;;;11.00;99.90;;;;;;4992483;28;20462;-69
2023/10/04 02:47:44;;;;;;;3.40;2.60;;;11.00;99.90;;;;;;4995210;28;20434;-68
2023/10/04 02:50:10;;;;;;;3.40;3.10;;;11.00;99.90;;;;;;4991617;28;20430;-69
2023/10/04 02:52:36;;;;;;;3.40;2.80;;;11.00;99.90;;;;;;4999699;28;20438;-68
2023/10/04 02:55:02;;;;;;;3.43;2.40;;;10.90;99.90;;;;;;4992639;28;20230;-68
2023/10/04 02:57:28;;;;;;;3.77;2.57;;;10.90;99.90;;;;;;4998845;28;20214;-68
2023/10/04 02:59:54;;;;;;;5.20;3.40;;;10.80;99.90;;;;;;5006565;28;20480;-68
2023/10/04 03:02:21;;;;;;;3.50;2.30;;;10.80;99.90;;;;;;4990838;28;20438;-69
2023/10/04 03:04:47;;;;;;;3.70;2.60;;;10.80;99.90;;;;;;4985929;28;20456;-68
2023/10/04 03:07:15;;;;;;;4.50;2.70;;;10.70;99.90;;;;;;4990672;28;20445;-68
2023/10/04 03:09:42;;;;;;;4.50;2.77;;;10.70;99.90;;;;;;5000487;28;20720;-68
2023/10/04 03:12:10;;;;;;;4.37;2.73;;;10.60;99.90;;;;;;4992526;28;20295;-69
2023/10/04 03:14:36;;;;;;;5.70;3.47;;;10.60;99.90;;;;;;4992179;28;20508;-68
2023/10/04 03:17:02;;;;;;;3.57;2.83;;;10.60;99.90;;;;;;4990982;28;20446;-68
2023/10/04 03:19:28;;;;;;;4.10;2.60;;;10.60;99.90;;;;;;4990226;28;20712;-68
2023/10/04 03:21:54;;;;;;;4.03;2.80;;;10.60;99.90;;;;;;4997739;28;20514;-68
2023/10/04 03:24:19;;;;;;;3.90;2.80;;;10.60;99.90;;;;;;5002555;28;20202;-69
2023/10/04 03:26:45;;;;;;;2.63;1.90;;;10.60;99.90;;;;;;5000103;28;20301;-68
2023/10/04 03:29:14;;;;;;;4.03;3.07;;;10.60;99.90;;;;;;4993974;28;20507;-69
2023/10/04 03:31:40;;;;;;;4.70;3.47;;;10.60;99.90;;;;;;4987983;28;20630;-68
2023/10/04 03:34:07;;;;;;;4.10;2.67;;;10.50;99.90;;;;;;4989676;28;20585;-68
2023/10/04 03:36:34;;;;;;;3.47;2.50;;;10.40;99.90;;;;;;4994363;28;20212;-68
2023/10/04 03:39:00;;;;;;;4.90;3.10;;;10.40;99.90;;;;;;5003674;28;20454;-68
2023/10/04 03:41:26;;;;;;;3.73;2.97;;;10.40;99.90;;;;;;4994342;28;20535;-68
2023/10/04 03:43:52;;;;;;;6.00;2.80;;;10.50;99.90;;;;;;4992057;28;20170;-68
2023/10/04 03:46:18;;;;;;;4.40;3.17;;;10.50;99.90;;;;;;4989079;28;20579;-68
2023/10/04 03:48:48;;;;;;;4.00;3.10;;;10.50;99.90;;;;;;4998253;28;20441;-68
2023/10/04 03:51:19;;;;;;;7.13;2.70;;;10.50;99.90;;;;;;5006556;28;20615;-68
2023/10/04 03:53:46;;;;;;;3.20;2.90;;;10.40;99.90;;;;;;4990737;28;20934;-69
2023/10/04 03:56:17;;;;;;;3.17;2.43;;;10.40;99.90;;;;;;4997954;28;20468;-68
2023/10/04 03:58:42;;;;;;;3.30;3.00;;;10.30;99.90;;;;;;4988862;28;20475;-68
2023/10/04 04:01:09;;;;;;;6.67;2.63;;;10.30;99.90;;;;;;5003854;28;20797;-68
2023/10/04 04:03:34;;;;;;;3.70;3.40;;;10.30;99.90;;;;;;4993966;28;20462;-69
2023/10/04 04:06:04;;;;;;;6.00;3.63;;;10.30;99.90;;;;;;4993120;28;20876;-69
2023/10/04 04:08:29;;;;;;;6.30;3.40;;;10.30;99.90;;;;;;4991320;28;20608;-68
2023/10/04 04:10:55;;;;;;;4.00;3.20;;;10.30;99.90;;;;;;4997226;28;20509;-68
2023/10/04 04:13:21;;;;;;;3.80;3.20;;;10.30;99.90;;;;;;5004388;28;20188;-68
2023/10/04 04:15:48;;;;;;;3.87;3.50;;;10.30;99.90;;;;;;5015102;28;20210;-68
2023/10/04 04:18:19;;;;;;;4.40;2.57;;;10.30;99.90;;;;;;5006153;28;20289;-68
2023/10/04 04:20:46;;;;;;;8.13;3.10;;;10.20;99.90;;;;;;4992304;28;20461;-68
2023/10/04 04:23:13;;;;;;;6.43;3.00;;;10.20;99.90;;;;;;4995351;28;20501;-68
2023/10/04 04:25:39;;;;;;;4.37;3.20;;;10.20;99.90;;;;;;4993591;28;20921;-68
2023/10/04 04:28:07;;;;;;;4.13;2.93;;;10.20;99.90;;;;;;4993664;28;20521;-69
2023/10/04 04:30:35;;;;;;;5.13;2.70;;;10.20;99.90;;;;;;5001709;28;20183;-68
2023/10/04 04:33:04;;;;;;;4.93;3.30;;;10.10;99.90;;;;;;4994940;28;20418;-68
2023/10/04 04:37:56;;;;;;;3.30;2.73;;;10.10;99.90;;;;;;5000927;28;21058;-69
2023/10/04 04:40:30;;;;;;;4.20;3.47;;;10.10;99.90;;;;;;5012696;28;20167;-69
2023/10/04 04:43:14;;;;;;;4.90;3.90;;;10.10;99.90;;;;;;5004528;28;20496;-69
2023/10/04 04:45:48;;;;;;;5.23;3.13;;;10.10;99.90;;;;;;4989796;28;20453;-69
2023/10/04 04:48:15;;;;;;;4.40;3.30;;;10.10;99.90;;;;;;5003135;28;20997;-69
2023/10/04 04:50:41;;;;;;;5.37;3.47;;;10.00;99.90;;;;;;5006745;28;20422;-69
2023/10/04 04:53:18;;;;;;;4.50;3.50;;;10.00;99.90;;;;;;5014272;28;20422;-69
2023/10/04 04:55:44;;;;;;;4.33;3.40;;;9.90;99.90;;;;;;5001233;28;21017;-69
2023/10/04 04:58:13;;;;;;;3.60;2.53;;;9.90;99.90;;;;;;4991687;28;20497;-69
2023/10/04 05:00:42;;;;;;;3.70;3.00;;;9.90;99.90;;;;;;4985906;28;20434;-69
2023/10/04 05:03:08;;;;;;;4.97;3.57;;;9.90;99.90;;;;;;4994701;28;20438;-69
2023/10/04 05:05:34;;;;;;;4.80;3.47;;;9.80;99.90;;;;;;4991121;28;20740;-69
2023/10/04 05:08:00;;;;;;;5.67;3.50;;;9.80;99.90;;;;;;4998423;28;20527;-69
2023/10/04 05:10:29;;;;;;;5.33;3.70;;;9.80;99.90;;;;;;5004624;28;20258;-69
2023/10/04 05:12:55;;;;;;;4.40;3.27;;;9.80;99.90;;;;;;4998888;28;20893;-69
2023/10/04 05:15:42;;;;;;;7.40;3.10;;;9.80;99.90;;;;;;4995529;28;20470;-68
2023/10/04 05:18:15;;;;;;;3.90;3.47;;;9.80;99.90;;;;;;4992749;28;20462;-68
2023/10/04 05:20:45;;;;;;;4.93;3.33;;;9.80;99.90;;;;;;4996492;28;20430;-69
2023/10/04 05:23:11;;;;;;;6.37;3.27;;;9.80;99.90;;;;;;4997791;28;20418;-69
2023/10/04 05:25:37;;;;;;;5.80;3.30;;;9.80;99.90;;;;;;4993397;28;20586;-68
2023/10/04 05:28:11;;;;;;;4.43;3.93;;;9.80;99.90;;;;;;4989296;28;20668;-68
2023/10/04 05:30:38;;;;;;;4.83;3.30;;;9.80;99.90;;;;;;4990990;28;20496;-68
2023/10/04 05:33:04;;;;;;;5.67;4.13;;;9.80;99.90;;;;;;4987548;28;20858;-68
2023/10/04 05:35:29;;;;;;;5.50;3.80;;;9.80;99.90;;;;;;5002831;28;20810;-68
2023/10/04 05:37:55;;;;;;;5.63;4.23;;;9.80;99.90;;;;;;4992035;28;21041;-69
2023/10/04 05:40:27;;;;;;;3.33;3.03;;;9.80;99.90;;;;;;4993194;28;20204;-69
2023/10/04 05:42:53;;;;;;;4.80;3.33;;;9.80;99.90;;;;;;4993738;28;20618;-68
2023/10/04 05:45:22;;;;;;;3.93;3.30;;;9.80;99.90;;;;;;5000940;28;20551;-69
2023/10/04 05:47:50;;;;;;;4.10;3.43;;;9.80;99.90;;;;;;4990557;28;20454;-69
2023/10/04 05:50:23;;;;;;;4.63;3.70;;;9.90;99.90;;;;;;4992568;28;20932;-69
2023/10/04 05:52:50;;;;;;;7.93;3.93;;;9.90;99.90;;;;;;4993392;28;20431;-69
2023/10/04 05:55:17;;;;;;;3.37;3.07;;;9.90;99.90;;;;;;4993759;28;20430;-69
2023/10/04 05:57:47;;;;;;;3.90;3.37;;;10.00;99.90;;;;;;4992861;28;20466;-69
2023/10/04 06:03:06;;;;;;;5.53;3.97;;;10.10;99.90;;;;;;4991163;28;20538;-70
2023/10/04 06:05:34;;;;;;;4.50;3.30;;;10.20;99.90;;;;;;4992698;28;20442;-68
2023/10/04 06:08:11;;;;;;;5.03;4.00;;;10.50;99.90;;;;;;4999941;28;20446;-70
2023/10/04 06:10:38;;;;;;;5.33;4.43;;;10.70;99.90;;;;;;4989669;28;20997;-69
2023/10/04 06:13:07;;;;;;;5.97;4.17;;;10.90;99.90;;;;;;4995222;28;20446;-69
2023/10/04 06:15:33;;;;;;;3.90;3.50;;;11.10;99.90;;;;;;4985736;28;20478;-69
2023/10/04 06:17:59;;;;;;;12.47;3.83;;;11.40;99.90;;;;;;4991266;28;20882;-69
2023/10/04 06:23:00;;;;;;;4.67;3.63;;;11.60;99.90;;;;;;4993063;28;20167;-69
2023/10/04 06:25:27;;;;;;;4.10;3.47;;;11.70;99.90;;;;;;4996793;28;20227;-67
2023/10/04 06:27:55;;;;;;;4.03;3.63;;;11.90;99.90;;;;;;4988830;28;20454;-67
2023/10/04 06:30:24;;;;;;;6.23;3.90;;;12.10;99.90;;;;;;4992865;28;20430;-69
2023/10/04 06:32:50;;;;;;;5.57;4.07;;;12.20;99.90;;;;;;4995858;28;20997;-69
2023/10/04 06:35:17;;;;;;;5.20;4.70;;;12.40;99.90;;;;;;4992530;28;20451;-68
2023/10/04 06:37:42;;;;;;;4.23;3.83;;;12.50;99.90;;;;;;4990926;28;20529;-67
2023/10/04 06:40:15;;;;;;;5.77;4.33;;;12.60;99.90;;;;;;4992277;28;20922;-68
2023/10/04 06:42:43;;;;;;;4.23;3.73;;;12.70;99.90;;;;;;4989720;28;20318;-65
2023/10/04 06:45:09;;;;;;;4.60;3.90;;;12.90;99.90;;;;;;4989357;28;20457;-72
2023/10/04 06:47:35;;;;;;;7.53;4.27;;;13.10;99.90;;;;;;4991753;28;20466;-73
2023/10/04 06:50:02;;;;;;;6.07;4.60;;;13.50;99.90;;;;;;4995403;28;20443;-74
2023/10/04 06:52:27;;;;;;;6.17;5.07;;;13.80;99.90;;;;;;4992563;28;20175;-73
2023/10/04 06:54:53;;;;;;;6.10;5.30;;;14.00;99.90;;;;;;4992371;28;20886;-73
2023/10/04 06:57:19;;;;;;;5.23;4.73;;;14.40;99.90;;;;;;4992634;28;20194;-74
2023/10/04 06:59:45;;;;;;;7.00;3.73;;;14.70;99.90;;;;;;4991689;28;20445;-73
2023/10/04 07:02:11;;;;;;;5.30;3.90;;;14.80;99.90;;;;;;4992207;28;20813;-74
2023/10/04 07:04:37;;;;;;;3.90;3.50;;;15.30;99.90;;;;;;4992280;28;20192;-74
2023/10/04 07:07:02;;;;;;;5.83;3.40;;;15.60;99.90;;;;;;4991937;28;20190;-73
2023/10/04 07:09:28;;;;;;;6.53;5.03;;;15.80;99.90;;;;;;4992462;28;20637;-74
2023/10/04 07:11:54;;;;;;;7.03;4.17;;;16.20;99.90;;;;;;4992633;28;20172;-74
2023/10/04 07:14:19;;;;;;;4.47;3.93;;;16.50;99.90;;;;;;4992195;28;20164;-73
2023/10/04 07:16:45;;;;;;;4.27;2.83;;;16.80;99.90;;;;;;4987092;28;20435;-73
2023/10/04 07:19:11;;;;;;;5.03;3.07;;;16.90;99.90;;;;;;4985201;28;20219;-73
2023/10/04 07:21:37;;;;;;;11.20;4.20;;;17.20;99.90;;;;;;4991460;28;20234;-74
2023/10/04 07:24:02;;;;;;;4.03;3.30;;;17.40;99.90;;;;;;4992149;28;20431;-73
2023/10/04 07:26:34;;;;;;;5.30;3.23;;;17.70;99.90;;;;;;4991519;28;20199;-74
2023/10/04 07:29:00;;;;;;;5.93;3.07;;;17.90;99.90;;;;;;4992474;28;20283;-74
2023/10/04 07:31:25;;;;;;;6.43;3.00;;;18.20;99.90;;;;;;4995330;28;20936;-74
2023/10/04 07:33:51;;;;;;;6.73;3.73;;;18.20;99.90;;;;;;4996296;28;20788;-74
2023/10/04 07:36:16;;;;;;;2.60;2.40;;;18.30;99.90;;;;;;4995374;28;20585;-74
2023/10/04 07:38:42;;;;;;;4.20;2.70;;;18.70;99.90;;;;;;4995237;28;20734;-75
2023/10/04 07:41:08;;;;;;;8.40;3.00;;;18.70;99.90;;;;;;4990860;28;20704;-74
2023/10/04 07:43:35;;;;;;;7.80;3.00;;;18.70;99.90;;;;;;4996097;28;20171;-74
2023/10/04 07:46:01;;;;;;;5.47;2.70;;;19.10;99.90;;;;;;4995281;28;21676;-74
2023/10/04 07:48:27;;;;;;;4.07;2.27;;;19.40;99.90;;;;;;4995469;28;20946;-74
2023/10/04 07:50:52;;;;;;;7.13;2.93;;;19.70;99.90;;;;;;4996094;28;20449;-73
2023/10/04 07:53:21;;;;;;;5.53;2.10;;;19.40;99.90;;;;;;4996368;28;20171;-74
2023/10/04 07:55:49;;;;;;;7.03;2.50;;;19.50;99.90;;;;;;4996047;28;20271;-74
2023/10/04 07:58:14;;;;;;;3.03;1.97;;;19.60;99.90;;;;;;4995137;28;20475;-74
2023/10/04 08:00:41;;;;;;;2.37;2.10;;;20.40;99.90;;;;;;4995979;28;20942;-74
2023/10/04 08:03:08;;;;;;;3.80;2.47;;;20.50;99.90;;;;;;4994793;28;20179;-75
2023/10/04 08:05:35;;;;;;;3.77;2.20;;;20.70;99.90;;;;;;4995706;28;20580;-74
2023/10/04 08:08:02;;;;;;;5.93;2.33;;;20.70;99.90;;;;;;4995810;28;20446;-74
2023/10/04 08:10:34;;;;;;;4.20;2.30;;;20.50;99.90;;;;;;4994641;28;20446;-73
2023/10/04 08:13:01;;;;;;;4.37;1.80;;;21.10;99.90;;;;;;4995473;28;20430;-74
2023/10/04 08:15:29;;;;;;;5.20;2.80;;;21.10;99.90;;;;;;4995652;28;20466;-74
2023/10/04 08:17:56;;;;;;;6.40;2.33;;;21.80;99.90;;;;;;4995778;28;20461;-74
2023/10/04 08:20:24;;;;;;;3.17;2.07;;;22.50;98.80;;;;;;4994539;28;20465;-74
2023/10/04 08:22:50;;;;;;;3.17;2.00;;;22.90;98.30;;;;;;4995249;28;20912;-74
2023/10/04 08:25:18;;;;;;;3.67;1.90;;;23.60;94.80;;;;;;4995455;28;20438;-75
2023/10/04 08:27:45;;;;;;;5.00;2.27;;;23.90;92.50;;;;;;4994207;28;20431;-74
2023/10/04 08:30:13;;;;;;;4.20;1.83;;;23.90;91.60;;;;;;4995525;28;20423;-75
2023/10/04 08:32:43;;;;;;;7.93;3.07;;;24.10;89.40;;;;;;4994290;28;20963;-75
2023/10/04 08:35:21;;;;;;;3.77;2.67;;;24.20;88.60;;;;;;4995539;28;20447;-74
2023/10/04 08:37:53;;;;;;;6.90;2.43;;;24.00;90.00;;;;;;4995278;28;20458;-75
2023/10/04 08:40:25;;;;;;;4.10;1.93;;;24.30;87.70;;;;;;4995340;28;20411;-75
2023/10/04 08:42:51;;;;;;;5.20;2.50;;;24.70;84.60;;;;;;4993766;28;20505;-75
2023/10/04 08:45:17;;;;;;;4.70;2.60;;;25.50;79.30;;;;;;4993164;28;20542;-75
2023/10/04 08:47:51;;;;;;;3.30;1.90;;;25.30;76.20;;;;;;4995065;28;20172;-75
2023/10/04 08:50:41;;;;;;;2.30;1.80;;;25.10;73.50;;;;;;4995450;28;20836;-75
2023/10/04 08:53:22;;;;;;;1.70;1.60;;;25.60;73.50;;;;;;4994958;28;20419;-75
2023/10/04 08:55:54;;;;;;;3.77;2.13;;;26.40;69.20;;;;;;4993841;28;20537;-75
2023/10/04 08:58:20;;;;;;;6.63;2.03;;;27.00;66.80;;;;;;4994782;28;20974;-75
2023/10/04 09:00:48;;;;;;;3.20;1.80;;;27.20;62.00;;;;;;4995196;28;20415;-75
2023/10/04 09:03:15;;;;;;;3.20;2.57;;;28.00;58.60;;;;;;4994582;28;20259;-77
2023/10/04 09:05:46;;;;;;;3.37;1.80;;;28.50;57.70;;;;;;4994713;28;20441;-75
2023/10/04 09:08:14;;;;;;;4.10;2.40;;;28.20;55.20;;;;;;4991815;28;20438;-75
2023/10/04 09:10:41;;;;;;;7.37;2.10;;;28.50;53.70;;;;;;4986727;28;20423;-75
2023/10/04 09:13:09;;;;;;;4.20;3.30;;;28.00;55.00;;;;;;4994332;28;20414;-75
2023/10/04 09:15:34;;;;;;;2.80;2.23;;;29.50;53.00;;;;;;4994497;28;20466;-75
2023/10/04 09:18:02;;;;;;;1.87;1.40;;;29.90;49.60;;;;;;4993702;28;20517;-75
2023/10/04 09:20:32;;;;;;;3.80;1.97;;;28.10;51.30;;;;;;4994354;28;20164;-75
2023/10/04 09:23:00;;;;;;;3.40;2.03;;;29.10;52.30;;;;;;4994626;28;20477;-76
2023/10/04 09:25:36;;;;;;;2.20;2.00;;;29.20;50.40;;;;;;4994407;28;20442;-75
2023/10/04 09:28:01;;;;;;;2.30;1.80;;;30.40;48.10;;;;;;4993154;28;20484;-73
2023/10/04 09:30:28;;;;;;;2.97;2.60;;;30.80;46.60;;;;;;4993392;28;20838;-73
2023/10/04 09:32:53;;;;;;;3.93;3.17;;;31.30;44.70;;;;;;4994017;28;20164;-73
2023/10/04 09:35:19;;;;;;;3.43;2.47;;;31.60;43.50;;;;;;4994110;28;20470;-73
2023/10/04 09:37:49;;;;;;;2.90;2.30;;;32.00;42.50;;;;;;4994084;28;20214;-73
2023/10/04 09:40:17;;;;;;;2.83;2.23;;;32.90;41.40;;;;;;4994364;28;20419;-73
2023/10/04 09:42:53;;;;;;;4.47;2.30;;;32.20;40.40;;;;;;4992740;28;20441;-73
2023/10/04 09:45:31;;;;;;;3.43;2.10;;;31.60;40.00;;;;;;4993960;28;20449;-74
2023/10/04 09:48:02;;;;;;;4.70;2.27;;;31.60;40.40;;;;;;4993984;28;20422;-73
2023/10/04 09:50:28;;;;;;;4.87;2.63;;;32.00;39.10;;;;;;4993965;28;20485;-73
2023/10/04 09:52:54;;;;;;;5.10;2.20;;;32.00;39.20;;;;;;4992406;28;20441;-73
2023/10/04 09:55:22;;;;;;;2.53;2.33;;;31.00;38.40;;;;;;4992921;28;20454;-75
2023/10/04 09:57:49;;;;;;;2.30;2.10;;;30.20;40.20;;;;;;4993749;28;20199;-75
2023/10/04 10:00:18;;;;;;;5.40;2.50;;;30.90;39.90;;;;;;4993810;28;20931;-77
2023/10/04 10:02:57;;;;;;;4.27;2.30;;;31.60;38.80;;;;;;4993548;28;20549;-75
2023/10/04 10:05:28;;;;;;;3.23;1.90;;;32.30;37.90;;;;;;4991678;28;20540;-76
2023/10/04 10:07:55;;;;;;;5.53;2.00;;;33.40;36.20;;;;;;4992660;28;20975;-73
2023/10/04 10:10:21;;;;;;;3.87;2.20;;;33.20;35.80;;;;;;4993445;28;20430;-73
2023/10/04 10:12:49;;;;;;;2.93;2.50;;;34.30;34.90;;;;;;4993120;28;20429;-73
2023/10/04 10:15:18;;;;;;;3.70;2.20;;;35.60;33.60;;;;;;4993364;28;20521;-73
2023/10/04 10:17:47;;;;;;;2.37;2.17;;;34.60;32.10;;;;;;4992174;28;20462;-73
2023/10/04 10:20:15;;;;;;;2.93;2.30;;;35.80;31.60;;;;;;4993547;28;20419;-73
2023/10/04 10:22:58;;;;;;;2.83;2.30;;;36.90;30.20;;;;;;4993117;28;20419;-73
2023/10/04 10:25:29;;;;;;;2.57;2.10;;;35.50;30.10;;;;;;4993153;28;20450;-73
2023/10/04 10:28:01;;;;;;;2.33;1.90;;;34.70;31.30;;;;;;4992291;28;20449;-72
2023/10/04 10:30:30;;;;;;;2.30;1.90;;;34.10;31.60;;;;;;4993397;28;20432;-73
2023/10/04 10:32:58;;;;;;;2.57;2.37;;;34.90;30.50;;;;;;4992993;28;20419;-72
2023/10/04 10:35:48;;;;;;;3.03;2.20;;;33.80;30.10;;;;;;4993177;28;20931;-72
2023/10/04 10:38:39;;;;;;;2.77;1.97;;;32.70;31.70;;;;;;4993223;28;20462;-72
2023/10/04 10:41:05;;;;;;;3.93;2.87;;;31.50;32.60;;;;;;4992052;28;20803;-72
2023/10/04 10:43:31;;;;;;;2.83;2.57;;;30.60;33.80;;;;;;4992724;28;20430;-72
2023/10/04 10:45:57;;;;;;;2.40;2.10;;;30.70;33.70;;;;;;4992997;28;20446;-74
2023/10/04 10:48:33;;;;;;;3.10;2.00;;;31.80;32.80;;;;;;4993037;28;20222;-75
2023/10/04 10:51:00;;;;;;;4.90;1.90;;;32.00;32.00;;;;;;4991827;28;20194;-75
2023/10/04 10:53:26;;;;;;;3.50;2.17;;;33.00;31.40;;;;;;4992430;28;20469;-75
2023/10/04 10:55:52;;;;;;;2.63;2.10;;;34.40;30.20;;;;;;4991691;28;20442;-74
2023/10/04 10:58:17;;;;;;;3.87;1.87;;;33.60;30.30;;;;;;4992693;28;20488;-74
2023/10/04 11:00:43;;;;;;;4.13;3.50;;;30.50;32.60;;;;;;4991733;28;20176;-74
2023/10/04 11:03:09;;;;;;;2.50;2.30;;;28.80;34.80;;;;;;4991472;28;20700;-75
2023/10/04 11:05:35;;;;;;;2.20;2.00;;;30.50;33.50;;;;;;4991899;28;20434;-74
2023/10/04 11:08:06;;;;;;;2.17;1.97;;;32.20;32.50;;;;;;4992841;28;20262;-71
2023/10/04 11:10:34;;;;;;;2.30;2.00;;;32.30;31.30;;;;;;4991805;28;20438;-74
2023/10/04 11:13:08;;;;;;;2.20;2.00;;;31.30;32.30;;;;;;4992282;28;20423;-74
2023/10/04 11:15:36;;;;;;;3.70;2.60;;;29.50;33.40;;;;;;4992980;28;20485;-74
2023/10/04 11:18:01;;;;;;;4.63;2.17;;;29.70;34.90;;;;;;4991453;28;20978;-75
2023/10/04 11:20:31;;;;;;;4.50;2.67;;;31.80;33.60;;;;;;4992425;28;20423;-75
2023/10/04 11:22:56;;;;;;;2.93;2.20;;;33.90;31.10;;;;;;4992350;28;20170;-74
2023/10/04 11:25:22;;;;;;;2.60;1.77;;;32.50;31.00;;;;;;4992531;28;20439;-74
2023/10/04 11:27:51;;;;;;;3.00;1.70;;;30.70;32.20;;;;;;4991346;28;20176;-74
2023/10/04 11:30:17;;;;;;;3.20;2.03;;;28.80;34.10;;;;;;4992417;28;20221;-74
2023/10/04 11:32:45;;;;;;;3.00;2.03;;;27.70;35.70;;;;;;4990196;28;20445;-74
2023/10/04 11:35:11;;;;;;;2.10;1.60;;;26.30;37.10;;;;;;4992172;28;20445;-73
2023/10/04 11:37:44;;;;;;;2.30;2.10;;;25.40;38.50;;;;;;4992325;28;20459;-74
2023/10/04 11:40:12;;;;;;;2.93;2.27;;;25.00;39.60;;;;;;4992463;28;20414;-74
2023/10/04 11:42:39;;;;;;;3.40;2.30;;;26.90;37.30;;;;;;4990947;28;20466;-74
2023/10/04 11:45:26;;;;;;;3.43;2.30;;;30.30;33.90;;;;;;4991557;28;20439;-74
2023/10/04 11:48:03;;;;;;;2.63;2.10;;;33.00;31.30;;;;;;4989869;28;20483;-74
2023/10/04 11:50:48;;;;;;;4.00;1.97;;;34.60;30.00;;;;;;4992186;28;20427;-74
2023/10/04 11:53:30;;;;;;;4.20;1.90;;;34.20;29.10;;;;;;4992119;28;20450;-75
2023/10/04 11:55:57;;;;;;;1.70;1.60;;;36.40;28.60;;;;;;4991106;28;20454;-75
2023/10/04 11:58:23;;;;;;;3.53;2.10;;;36.10;27.60;;;;;;4992180;28;20462;-74
2023/10/04 12:01:01;;;;;;;2.90;2.20;;;33.50;28.80;;;;;;4992255;28;20429;-74
2023/10/04 12:03:27;;;;;;;3.83;2.07;;;32.70;30.00;;;;;;4991934;28;20168;-75
2023/10/04 12:05:52;;;;;;;2.00;1.63;;;33.90;29.50;;;;;;4990094;28;20963;-74
2023/10/04 12:08:19;;;;;;;3.13;1.80;;;36.30;28.00;;;;;;4991009;28;20218;-75
2023/10/04 12:10:46;;;;;;;2.90;1.90;;;37.80;27.10;;;;;;4992258;28;20600;-74
2023/10/04 12:13:13;;;;;;;2.00;1.80;;;38.90;26.00;;;;;;4991882;28;20422;-75
2023/10/04 12:15:39;;;;;;;2.40;2.17;;;39.60;25.20;;;;;;4991878;28;21056;-74
2023/10/04 12:18:06;;;;;;;2.73;1.90;;;40.10;25.30;;;;;;4994476;28;20458;-74
2023/10/04 12:20:36;;;;;;;2.60;2.40;;;38.80;24.90;;;;;;4995672;28;20187;-74
2023/10/04 12:23:02;;;;;;;2.20;1.90;;;37.50;25.50;;;;;;4995429;28;20934;-74
2023/10/04 12:25:28;;;;;;;2.33;2.13;;;36.60;25.60;;;;;;4995881;28;20442;-74
2023/10/04 12:27:54;;;;;;;2.63;2.43;;;34.20;26.40;;;;;;4994582;28;20439;-73
2023/10/04 12:30:21;;;;;;;2.80;2.00;;;32.40;27.80;;;;;;4995514;28;20585;-74
2023/10/04 12:32:46;;;;;;;2.90;1.90;;;31.40;28.90;;;;;;4995194;28;20423;-73
2023/10/04 12:35:13;;;;;;;2.70;1.83;;;32.30;28.40;;;;;;4995331;28;20497;-73
2023/10/04 12:37:39;;;;;;;2.87;2.67;;;32.20;28.40;;;;;;4995163;28;20207;-73
2023/10/04 12:40:17;;;;;;;4.40;3.10;;;31.50;29.10;;;;;;4993883;28;20804;-73
2023/10/04 12:42:43;;;;;;;2.23;1.70;;;31.50;29.50;;;;;;4987671;28;20781;-73
2023/10/04 12:45:10;;;;;;;2.83;1.80;;;33.00;28.70;;;;;;4995115;28;20442;-73
2023/10/04 12:47:36;;;;;;;1.60;1.50;;;34.60;27.20;;;;;;4995246;28;20770;-74
2023/10/04 12:50:03;;;;;;;2.37;1.70;;;35.60;26.90;;;;;;4994021;28;20441;-73
2023/10/04 12:52:30;;;;;;;2.03;1.80;;;37.10;26.30;;;;;;4995080;28;20427;-73
2023/10/04 12:54:57;;;;;;;3.27;2.97;;;37.30;26.00;;;;;;4994948;28;20815;-73
2023/10/04 12:57:23;;;;;;;2.57;2.37;;;38.00;25.90;;;;;;4994833;28;20418;-73
2023/10/04 12:59:48;;;;;;;3.00;1.97;;;38.40;25.80;;;;;;4993847;28;20434;-73